sensor_id;sensor_type;location;lat;lon;timestamp;P1;durP1;ratioP1;P2;durP2;ratioP2
72095;SDS011;59968;51.084;16.748;2022-10-15T00:01:47;28.90;;;14.90;;
72095;SDS011;59968;51.084;16.748;2022-10-15T00:04:16;28.80;;;13.70;;
72095;SDS011;59968;51.084;16.748;2022-10-15T00:06:44;28.40;;;13.80;;
72095;SDS011;59968;51.084;16.748;2022-10-15T00:09:12;28.80;;;13.70;;
72095;SDS011;59968;51.084;16.748;2022-10-15T00:11:41;29.70;;;14.30;;
72095;SDS011;59968;51.084;16.748;2022-10-15T00:14:10;29.10;;;13.60;;
72095;SDS011;59968;51.084;16.748;2022-10-15T00:16:38;27.10;;;13.90;;
72095;SDS011;59968;51.084;16.748;2022-10-15T00:19:08;27.40;;;13.80;;
72095;SDS011;59968;51.084;16.748;2022-10-15T00:21:37;29.40;;;13.80;;
72095;SDS011;59968;51.084;16.748;2022-10-15T00:24:06;26.00;;;13.40;;
72095;SDS011;59968;51.084;16.748;2022-10-15T00:26:34;26.90;;;13.40;;
72095;SDS011;59968;51.084;16.748;2022-10-15T00:29:03;25.10;;;12.50;;
72095;SDS011;59968;51.084;16.748;2022-10-15T00:31:32;27.70;;;13.50;;
72095;SDS011;59968;51.084;16.748;2022-10-15T00:34:00;32.80;;;15.20;;
72095;SDS011;59968;51.084;16.748;2022-10-15T00:36:33;27.50;;;13.90;;
72095;SDS011;59968;51.084;16.748;2022-10-15T00:39:04;30.80;;;13.40;;
72095;SDS011;59968;51.084;16.748;2022-10-15T00:41:35;26.80;;;12.90;;
72095;SDS011;59968;51.084;16.748;2022-10-15T00:46:52;26.30;;;13.20;;
72095;SDS011;59968;51.084;16.748;2022-10-15T00:49:27;29.00;;;13.80;;
72095;SDS011;59968;51.084;16.748;2022-10-15T00:52:09;28.40;;;13.90;;
72095;SDS011;59968;51.084;16.748;2022-10-15T00:54:43;25.70;;;12.80;;
72095;SDS011;59968;51.084;16.748;2022-10-15T00:57:16;26.20;;;13.40;;
72095;SDS011;59968;51.084;16.748;2022-10-15T00:59:48;26.70;;;14.20;;
72095;SDS011;59968;51.084;16.748;2022-10-15T01:02:22;28.40;;;14.20;;
72095;SDS011;59968;51.084;16.748;2022-10-15T01:04:50;26.90;;;13.70;;
72095;SDS011;59968;51.084;16.748;2022-10-15T01:07:20;28.30;;;13.00;;
72095;SDS011;59968;51.084;16.748;2022-10-15T01:09:48;26.60;;;12.80;;
72095;SDS011;59968;51.084;16.748;2022-10-15T01:12:21;31.50;;;13.70;;
72095;SDS011;59968;51.084;16.748;2022-10-15T01:18:16;27.30;;;13.90;;
72095;SDS011;59968;51.084;16.748;2022-10-15T01:29:18;26.50;;;13.90;;
72095;SDS011;59968;51.084;16.748;2022-10-15T01:40:27;24.50;;;12.70;;
72095;SDS011;59968;51.084;16.748;2022-10-15T01:44:23;26.50;;;13.30;;
72095;SDS011;59968;51.084;16.748;2022-10-15T01:47:16;24.70;;;11.30;;
72095;SDS011;59968;51.084;16.748;2022-10-15T01:49:52;23.90;;;10.40;;
72095;SDS011;59968;51.084;16.748;2022-10-15T01:52:24;23.40;;;12.20;;
72095;SDS011;59968;51.084;16.748;2022-10-15T01:54:58;24.00;;;11.80;;
72095;SDS011;59968;51.084;16.748;2022-10-15T01:57:30;25.90;;;12.30;;
72095;SDS011;59968;51.084;16.748;2022-10-15T02:00:00;25.50;;;10.90;;
72095;SDS011;59968;51.084;16.748;2022-10-15T02:02:39;23.00;;;11.70;;
72095;SDS011;59968;51.084;16.748;2022-10-15T02:05:16;23.60;;;11.60;;
72095;SDS011;59968;51.084;16.748;2022-10-15T02:07:57;27.10;;;11.90;;
72095;SDS011;59968;51.084;16.748;2022-10-15T02:16:05;24.80;;;11.10;;
72095;SDS011;59968;51.084;16.748;2022-10-15T02:21:16;21.80;;;11.50;;
72095;SDS011;59968;51.084;16.748;2022-10-15T02:23:56;24.70;;;11.80;;
72095;SDS011;59968;51.084;16.748;2022-10-15T02:26:45;23.50;;;10.80;;
72095;SDS011;59968;51.084;16.748;2022-10-15T02:29:16;21.10;;;11.50;;
72095;SDS011;59968;51.084;16.748;2022-10-15T02:31:48;21.70;;;11.10;;
72095;SDS011;59968;51.084;16.748;2022-10-15T02:34:18;19.60;;;11.00;;
72095;SDS011;59968;51.084;16.748;2022-10-15T02:36:49;20.00;;;10.20;;
72095;SDS011;59968;51.084;16.748;2022-10-15T02:39:20;20.50;;;10.70;;
72095;SDS011;59968;51.084;16.748;2022-10-15T02:41:53;20.40;;;10.10;;
72095;SDS011;59968;51.084;16.748;2022-10-15T02:44:21;23.00;;;10.80;;
72095;SDS011;59968;51.084;16.748;2022-10-15T02:46:50;22.00;;;10.60;;
72095;SDS011;59968;51.084;16.748;2022-10-15T02:49:18;21.30;;;10.40;;
72095;SDS011;59968;51.084;16.748;2022-10-15T02:51:48;20.60;;;9.90;;
72095;SDS011;59968;51.084;16.748;2022-10-15T02:54:16;18.10;;;10.00;;
72095;SDS011;59968;51.084;16.748;2022-10-15T02:56:46;22.30;;;10.70;;
72095;SDS011;59968;51.084;16.748;2022-10-15T02:59:16;21.70;;;10.80;;
72095;SDS011;59968;51.084;16.748;2022-10-15T03:01:47;22.70;;;11.30;;
72095;SDS011;59968;51.084;16.748;2022-10-15T03:04:15;21.20;;;9.90;;
72095;SDS011;59968;51.084;16.748;2022-10-15T03:06:44;23.90;;;11.30;;
72095;SDS011;59968;51.084;16.748;2022-10-15T03:09:13;20.40;;;10.00;;
72095;SDS011;59968;51.084;16.748;2022-10-15T03:11:41;24.40;;;11.00;;
72095;SDS011;59968;51.084;16.748;2022-10-15T03:14:09;21.00;;;10.90;;
72095;SDS011;59968;51.084;16.748;2022-10-15T03:16:38;21.80;;;11.00;;
72095;SDS011;59968;51.084;16.748;2022-10-15T03:19:06;20.90;;;11.10;;
72095;SDS011;59968;51.084;16.748;2022-10-15T03:21:34;25.20;;;11.70;;
72095;SDS011;59968;51.084;16.748;2022-10-15T03:24:06;23.10;;;11.40;;
72095;SDS011;59968;51.084;16.748;2022-10-15T03:26:35;27.90;;;12.80;;
72095;SDS011;59968;51.084;16.748;2022-10-15T03:29:03;26.70;;;13.90;;
72095;SDS011;59968;51.084;16.748;2022-10-15T03:31:48;27.10;;;12.90;;
72095;SDS011;59968;51.084;16.748;2022-10-15T03:34:16;29.70;;;13.10;;
72095;SDS011;59968;51.084;16.748;2022-10-15T03:36:45;31.90;;;14.10;;
72095;SDS011;59968;51.084;16.748;2022-10-15T03:39:13;27.70;;;13.40;;
72095;SDS011;59968;51.084;16.748;2022-10-15T03:41:41;30.80;;;14.80;;
72095;SDS011;59968;51.084;16.748;2022-10-15T03:44:14;28.80;;;12.90;;
72095;SDS011;59968;51.084;16.748;2022-10-15T03:46:44;31.00;;;14.40;;
72095;SDS011;59968;51.084;16.748;2022-10-15T03:49:13;29.70;;;14.30;;
72095;SDS011;59968;51.084;16.748;2022-10-15T03:51:41;33.90;;;17.00;;
72095;SDS011;59968;51.084;16.748;2022-10-15T03:54:10;32.40;;;15.50;;
72095;SDS011;59968;51.084;16.748;2022-10-15T03:56:44;33.60;;;15.90;;
72095;SDS011;59968;51.084;16.748;2022-10-15T03:59:21;31.30;;;15.50;;
72095;SDS011;59968;51.084;16.748;2022-10-15T04:01:55;31.70;;;15.80;;
72095;SDS011;59968;51.084;16.748;2022-10-15T04:04:23;32.30;;;14.80;;
72095;SDS011;59968;51.084;16.748;2022-10-15T04:06:52;30.50;;;14.40;;
72095;SDS011;59968;51.084;16.748;2022-10-15T04:09:20;30.50;;;13.90;;
72095;SDS011;59968;51.084;16.748;2022-10-15T04:11:48;33.10;;;14.90;;
72095;SDS011;59968;51.084;16.748;2022-10-15T04:14:17;29.60;;;15.00;;
72095;SDS011;59968;51.084;16.748;2022-10-15T04:16:46;29.10;;;13.20;;
72095;SDS011;59968;51.084;16.748;2022-10-15T04:19:18;28.70;;;13.80;;
72095;SDS011;59968;51.084;16.748;2022-10-15T04:21:54;27.70;;;13.90;;
72095;SDS011;59968;51.084;16.748;2022-10-15T04:24:30;29.40;;;14.50;;
72095;SDS011;59968;51.084;16.748;2022-10-15T04:26:58;28.70;;;13.90;;
72095;SDS011;59968;51.084;16.748;2022-10-15T04:29:26;31.90;;;15.00;;
72095;SDS011;59968;51.084;16.748;2022-10-15T04:32:01;28.20;;;14.00;;
72095;SDS011;59968;51.084;16.748;2022-10-15T04:34:30;28.50;;;13.60;;
72095;SDS011;59968;51.084;16.748;2022-10-15T04:36:58;29.20;;;13.40;;
72095;SDS011;59968;51.084;16.748;2022-10-15T04:39:27;29.20;;;13.70;;
72095;SDS011;59968;51.084;16.748;2022-10-15T04:41:55;29.40;;;14.10;;
72095;SDS011;59968;51.084;16.748;2022-10-15T04:44:29;25.70;;;13.70;;
72095;SDS011;59968;51.084;16.748;2022-10-15T04:46:58;27.00;;;12.90;;
72095;SDS011;59968;51.084;16.748;2022-10-15T04:49:46;28.50;;;13.60;;
72095;SDS011;59968;51.084;16.748;2022-10-15T04:52:52;26.80;;;14.60;;
72095;SDS011;59968;51.084;16.748;2022-10-15T04:55:21;25.60;;;12.50;;
72095;SDS011;59968;51.084;16.748;2022-10-15T04:57:52;26.40;;;13.30;;
72095;SDS011;59968;51.084;16.748;2022-10-15T05:00:25;27.40;;;13.30;;
72095;SDS011;59968;51.084;16.748;2022-10-15T05:03:20;26.10;;;12.80;;
72095;SDS011;59968;51.084;16.748;2022-10-15T05:05:58;28.90;;;13.70;;
72095;SDS011;59968;51.084;16.748;2022-10-15T05:08:36;25.60;;;13.40;;
72095;SDS011;59968;51.084;16.748;2022-10-15T05:11:22;27.10;;;13.20;;
72095;SDS011;59968;51.084;16.748;2022-10-15T05:13:56;26.70;;;13.20;;
72095;SDS011;59968;51.084;16.748;2022-10-15T05:16:27;26.60;;;13.20;;
72095;SDS011;59968;51.084;16.748;2022-10-15T05:19:00;27.10;;;13.40;;
72095;SDS011;59968;51.084;16.748;2022-10-15T05:21:31;26.40;;;12.60;;
72095;SDS011;59968;51.084;16.748;2022-10-15T05:24:03;27.50;;;12.70;;
72095;SDS011;59968;51.084;16.748;2022-10-15T05:26:49;29.30;;;13.10;;
72095;SDS011;59968;51.084;16.748;2022-10-15T05:29:18;24.90;;;13.00;;
72095;SDS011;59968;51.084;16.748;2022-10-15T05:31:48;25.70;;;12.90;;
72095;SDS011;59968;51.084;16.748;2022-10-15T05:34:21;26.00;;;12.50;;
72095;SDS011;59968;51.084;16.748;2022-10-15T05:36:58;22.80;;;11.30;;
72095;SDS011;59968;51.084;16.748;2022-10-15T05:39:26;24.90;;;12.30;;
72095;SDS011;59968;51.084;16.748;2022-10-15T05:41:55;24.30;;;12.00;;
72095;SDS011;59968;51.084;16.748;2022-10-15T05:44:29;23.80;;;12.30;;
72095;SDS011;59968;51.084;16.748;2022-10-15T05:46:58;26.20;;;13.00;;
72095;SDS011;59968;51.084;16.748;2022-10-15T05:49:27;25.00;;;12.70;;
72095;SDS011;59968;51.084;16.748;2022-10-15T05:52:02;23.30;;;11.90;;
72095;SDS011;59968;51.084;16.748;2022-10-15T05:54:59;23.00;;;12.20;;
72095;SDS011;59968;51.084;16.748;2022-10-15T05:57:29;23.90;;;11.80;;
72095;SDS011;59968;51.084;16.748;2022-10-15T05:59:59;26.90;;;12.80;;
72095;SDS011;59968;51.084;16.748;2022-10-15T06:02:38;26.10;;;12.50;;
72095;SDS011;59968;51.084;16.748;2022-10-15T06:05:08;24.20;;;12.00;;
72095;SDS011;59968;51.084;16.748;2022-10-15T06:07:36;28.70;;;13.30;;
72095;SDS011;59968;51.084;16.748;2022-10-15T06:10:05;27.40;;;13.60;;
72095;SDS011;59968;51.084;16.748;2022-10-15T06:12:33;28.00;;;13.60;;
72095;SDS011;59968;51.084;16.748;2022-10-15T06:15:02;29.60;;;13.50;;
72095;SDS011;59968;51.084;16.748;2022-10-15T06:17:30;26.20;;;12.10;;
72095;SDS011;59968;51.084;16.748;2022-10-15T06:19:59;27.50;;;13.80;;
72095;SDS011;59968;51.084;16.748;2022-10-15T06:22:31;27.50;;;14.20;;
72095;SDS011;59968;51.084;16.748;2022-10-15T06:24:59;28.50;;;14.50;;
72095;SDS011;59968;51.084;16.748;2022-10-15T06:27:28;28.50;;;15.00;;
72095;SDS011;59968;51.084;16.748;2022-10-15T06:29:57;28.40;;;13.50;;
72095;SDS011;59968;51.084;16.748;2022-10-15T06:32:25;29.60;;;14.40;;
72095;SDS011;59968;51.084;16.748;2022-10-15T06:34:54;30.10;;;14.80;;
72095;SDS011;59968;51.084;16.748;2022-10-15T06:37:23;28.10;;;14.40;;
72095;SDS011;59968;51.084;16.748;2022-10-15T06:39:54;30.20;;;13.90;;
72095;SDS011;59968;51.084;16.748;2022-10-15T06:42:24;27.00;;;14.50;;
72095;SDS011;59968;51.084;16.748;2022-10-15T06:44:55;29.10;;;14.50;;
72095;SDS011;59968;51.084;16.748;2022-10-15T06:47:27;28.50;;;14.40;;
72095;SDS011;59968;51.084;16.748;2022-10-15T06:49:55;29.20;;;13.80;;
72095;SDS011;59968;51.084;16.748;2022-10-15T06:52:26;28.50;;;14.60;;
72095;SDS011;59968;51.084;16.748;2022-10-15T06:54:57;29.60;;;14.70;;
72095;SDS011;59968;51.084;16.748;2022-10-15T06:57:26;28.70;;;14.50;;
72095;SDS011;59968;51.084;16.748;2022-10-15T06:59:59;29.30;;;14.80;;
72095;SDS011;59968;51.084;16.748;2022-10-15T07:02:28;25.70;;;13.40;;
72095;SDS011;59968;51.084;16.748;2022-10-15T07:04:57;27.20;;;13.50;;
72095;SDS011;59968;51.084;16.748;2022-10-15T07:07:26;29.40;;;14.10;;
72095;SDS011;59968;51.084;16.748;2022-10-15T07:09:58;28.50;;;14.40;;
72095;SDS011;59968;51.084;16.748;2022-10-15T07:12:27;30.00;;;15.90;;
72095;SDS011;59968;51.084;16.748;2022-10-15T07:14:55;29.80;;;15.20;;
72095;SDS011;59968;51.084;16.748;2022-10-15T07:17:24;33.20;;;17.30;;
72095;SDS011;59968;51.084;16.748;2022-10-15T07:19:53;31.10;;;15.70;;
72095;SDS011;59968;51.084;16.748;2022-10-15T07:22:22;28.90;;;14.10;;
72095;SDS011;59968;51.084;16.748;2022-10-15T07:24:54;30.50;;;15.80;;
72095;SDS011;59968;51.084;16.748;2022-10-15T07:27:24;31.70;;;15.00;;
72095;SDS011;59968;51.084;16.748;2022-10-15T07:29:54;29.60;;;14.90;;
72095;SDS011;59968;51.084;16.748;2022-10-15T07:32:27;26.70;;;13.90;;
72095;SDS011;59968;51.084;16.748;2022-10-15T07:34:56;29.60;;;14.90;;
72095;SDS011;59968;51.084;16.748;2022-10-15T07:37:26;26.80;;;14.80;;
72095;SDS011;59968;51.084;16.748;2022-10-15T07:39:55;27.80;;;15.30;;
72095;SDS011;59968;51.084;16.748;2022-10-15T07:42:24;30.50;;;14.40;;
72095;SDS011;59968;51.084;16.748;2022-10-15T07:44:52;26.90;;;14.90;;
72095;SDS011;59968;51.084;16.748;2022-10-15T07:47:20;28.90;;;14.70;;
72095;SDS011;59968;51.084;16.748;2022-10-15T07:49:49;24.30;;;13.10;;
72095;SDS011;59968;51.084;16.748;2022-10-15T07:52:18;30.10;;;14.60;;
72095;SDS011;59968;51.084;16.748;2022-10-15T07:54:46;27.00;;;13.90;;
72095;SDS011;59968;51.084;16.748;2022-10-15T07:57:16;27.00;;;13.90;;
72095;SDS011;59968;51.084;16.748;2022-10-15T07:59:47;27.40;;;13.40;;
72095;SDS011;59968;51.084;16.748;2022-10-15T08:02:15;27.80;;;14.40;;
72095;SDS011;59968;51.084;16.748;2022-10-15T08:04:45;29.00;;;14.20;;
72095;SDS011;59968;51.084;16.748;2022-10-15T08:07:13;27.00;;;14.10;;
72095;SDS011;59968;51.084;16.748;2022-10-15T08:09:41;26.20;;;13.10;;
72095;SDS011;59968;51.084;16.748;2022-10-15T08:12:10;26.80;;;14.20;;
72095;SDS011;59968;51.084;16.748;2022-10-15T08:14:39;29.20;;;14.40;;
72095;SDS011;59968;51.084;16.748;2022-10-15T08:17:07;25.70;;;14.00;;
72095;SDS011;59968;51.084;16.748;2022-10-15T08:19:36;25.70;;;12.30;;
72095;SDS011;59968;51.084;16.748;2022-10-15T08:22:04;28.30;;;12.80;;
72095;SDS011;59968;51.084;16.748;2022-10-15T08:24:33;27.90;;;14.40;;
72095;SDS011;59968;51.084;16.748;2022-10-15T08:27:02;26.40;;;14.00;;
72095;SDS011;59968;51.084;16.748;2022-10-15T08:29:31;26.90;;;14.70;;
72095;SDS011;59968;51.084;16.748;2022-10-15T08:31:59;27.30;;;13.30;;
72095;SDS011;59968;51.084;16.748;2022-10-15T08:34:30;25.60;;;13.50;;
72095;SDS011;59968;51.084;16.748;2022-10-15T08:36:58;25.00;;;13.00;;
72095;SDS011;59968;51.084;16.748;2022-10-15T08:39:27;25.60;;;14.10;;
72095;SDS011;59968;51.084;16.748;2022-10-15T08:41:58;23.20;;;12.50;;
72095;SDS011;59968;51.084;16.748;2022-10-15T08:44:37;24.60;;;12.90;;
72095;SDS011;59968;51.084;16.748;2022-10-15T08:47:41;26.40;;;12.90;;
72095;SDS011;59968;51.084;16.748;2022-10-15T08:53:03;23.30;;;11.90;;
72095;SDS011;59968;51.084;16.748;2022-10-15T08:55:36;22.70;;;12.30;;
72095;SDS011;59968;51.084;16.748;2022-10-15T08:58:14;23.10;;;12.40;;
72095;SDS011;59968;51.084;16.748;2022-10-15T09:01:18;23.60;;;12.50;;
72095;SDS011;59968;51.084;16.748;2022-10-15T09:06:36;24.50;;;12.70;;
72095;SDS011;59968;51.084;16.748;2022-10-15T09:12:11;22.30;;;11.40;;
72095;SDS011;59968;51.084;16.748;2022-10-15T09:14:48;24.60;;;13.00;;
72095;SDS011;59968;51.084;16.748;2022-10-15T09:17:20;21.40;;;11.20;;
72095;SDS011;59968;51.084;16.748;2022-10-15T09:19:55;23.30;;;12.60;;
72095;SDS011;59968;51.084;16.748;2022-10-15T09:22:25;23.30;;;13.10;;
72095;SDS011;59968;51.084;16.748;2022-10-15T09:24:56;23.30;;;12.60;;
72095;SDS011;59968;51.084;16.748;2022-10-15T09:30:02;21.20;;;11.90;;
72095;SDS011;59968;51.084;16.748;2022-10-15T09:32:46;22.20;;;12.30;;
72095;SDS011;59968;51.084;16.748;2022-10-15T09:35:27;20.70;;;12.00;;
72095;SDS011;59968;51.084;16.748;2022-10-15T09:43:33;18.40;;;10.20;;
72095;SDS011;59968;51.084;16.748;2022-10-15T09:46:05;18.30;;;9.90;;
72095;SDS011;59968;51.084;16.748;2022-10-15T09:48:39;16.80;;;10.10;;
72095;SDS011;59968;51.084;16.748;2022-10-15T09:51:31;18.60;;;10.90;;
72095;SDS011;59968;51.084;16.748;2022-10-15T09:56:48;17.30;;;9.90;;
72095;SDS011;59968;51.084;16.748;2022-10-15T09:59:21;16.60;;;9.60;;
72095;SDS011;59968;51.084;16.748;2022-10-15T10:01:58;16.90;;;9.60;;
72095;SDS011;59968;51.084;16.748;2022-10-15T10:04:30;15.80;;;9.60;;
72095;SDS011;59968;51.084;16.748;2022-10-15T10:07:03;17.00;;;9.20;;
72095;SDS011;59968;51.084;16.748;2022-10-15T10:09:51;16.60;;;9.10;;
72095;SDS011;59968;51.084;16.748;2022-10-15T10:12:22;15.80;;;7.70;;
72095;SDS011;59968;51.084;16.748;2022-10-15T10:14:58;16.40;;;9.50;;
72095;SDS011;59968;51.084;16.748;2022-10-15T10:17:34;16.10;;;9.10;;
72095;SDS011;59968;51.084;16.748;2022-10-15T10:22:45;15.70;;;9.20;;
72095;SDS011;59968;51.084;16.748;2022-10-15T10:27:54;17.50;;;9.40;;
72095;SDS011;59968;51.084;16.748;2022-10-15T10:30:26;16.90;;;9.40;;
72095;SDS011;59968;51.084;16.748;2022-10-15T10:32:59;15.40;;;9.10;;
72095;SDS011;59968;51.084;16.748;2022-10-15T10:35:50;18.10;;;9.80;;
72095;SDS011;59968;51.084;16.748;2022-10-15T10:38:37;15.80;;;9.30;;
72095;SDS011;59968;51.084;16.748;2022-10-15T10:41:10;14.00;;;8.40;;
72095;SDS011;59968;51.084;16.748;2022-10-15T10:43:51;15.50;;;9.10;;
72095;SDS011;59968;51.084;16.748;2022-10-15T10:46:22;15.30;;;9.20;;
72095;SDS011;59968;51.084;16.748;2022-10-15T10:48:53;14.30;;;8.70;;
72095;SDS011;59968;51.084;16.748;2022-10-15T10:51:24;14.40;;;8.90;;
72095;SDS011;59968;51.084;16.748;2022-10-15T10:53:56;14.50;;;9.30;;
72095;SDS011;59968;51.084;16.748;2022-10-15T10:56:37;15.30;;;8.40;;
72095;SDS011;59968;51.084;16.748;2022-10-15T10:59:14;15.00;;;8.70;;
72095;SDS011;59968;51.084;16.748;2022-10-15T11:02:00;16.70;;;8.90;;
72095;SDS011;59968;51.084;16.748;2022-10-15T11:04:31;13.70;;;8.50;;
72095;SDS011;59968;51.084;16.748;2022-10-15T11:21:13;12.30;;;7.40;;
72095;SDS011;59968;51.084;16.748;2022-10-15T11:35:41;9.60;;;6.00;;
72095;SDS011;59968;51.084;16.748;2022-10-15T11:46:43;9.10;;;6.00;;
72095;SDS011;59968;51.084;16.748;2022-10-15T11:51:54;7.90;;;5.10;;
72095;SDS011;59968;51.084;16.748;2022-10-15T11:54:33;7.90;;;4.80;;
72095;SDS011;59968;51.084;16.748;2022-10-15T11:57:04;8.40;;;5.20;;
72095;SDS011;59968;51.084;16.748;2022-10-15T11:59:48;8.80;;;5.00;;
72095;SDS011;59968;51.084;16.748;2022-10-15T12:02:39;9.50;;;6.00;;
72095;SDS011;59968;51.084;16.748;2022-10-15T12:05:07;8.50;;;5.30;;
72095;SDS011;59968;51.084;16.748;2022-10-15T12:07:49;9.50;;;5.90;;
72095;SDS011;59968;51.084;16.748;2022-10-15T12:13:15;10.00;;;6.50;;
72095;SDS011;59968;51.084;16.748;2022-10-15T12:32:34;23.50;;;12.90;;
72095;SDS011;59968;51.084;16.748;2022-10-15T12:35:05;20.00;;;12.40;;
72095;SDS011;59968;51.084;16.748;2022-10-15T12:37:45;20.10;;;12.60;;
72095;SDS011;59968;51.084;16.748;2022-10-15T12:43:01;20.80;;;12.80;;
72095;SDS011;59968;51.084;16.748;2022-10-15T12:45:40;19.90;;;12.30;;
72095;SDS011;59968;51.084;16.748;2022-10-15T12:48:31;19.20;;;12.60;;
72095;SDS011;59968;51.084;16.748;2022-10-15T12:53:51;17.60;;;11.40;;
72095;SDS011;59968;51.084;16.748;2022-10-15T12:56:47;18.40;;;11.20;;
72095;SDS011;59968;51.084;16.748;2022-10-15T12:59:28;17.00;;;10.50;;
72095;SDS011;59968;51.084;16.748;2022-10-15T13:02:02;18.60;;;11.90;;
72095;SDS011;59968;51.084;16.748;2022-10-15T13:04:51;22.10;;;13.00;;
72095;SDS011;59968;51.084;16.748;2022-10-15T13:07:20;21.80;;;13.20;;
72095;SDS011;59968;51.084;16.748;2022-10-15T13:09:50;16.60;;;10.20;;
72095;SDS011;59968;51.084;16.748;2022-10-15T13:12:24;20.10;;;12.10;;
72095;SDS011;59968;51.084;16.748;2022-10-15T13:14:56;21.70;;;12.80;;
72095;SDS011;59968;51.084;16.748;2022-10-15T13:17:30;20.10;;;12.90;;
72095;SDS011;59968;51.084;16.748;2022-10-15T13:22:37;22.60;;;13.00;;
72095;SDS011;59968;51.084;16.748;2022-10-15T13:25:15;22.30;;;13.00;;
72095;SDS011;59968;51.084;16.748;2022-10-15T13:27:44;24.40;;;13.80;;
72095;SDS011;59968;51.084;16.748;2022-10-15T13:30:14;24.50;;;14.70;;
72095;SDS011;59968;51.084;16.748;2022-10-15T13:32:47;22.60;;;13.50;;
72095;SDS011;59968;51.084;16.748;2022-10-15T13:35:22;19.30;;;11.60;;
72095;SDS011;59968;51.084;16.748;2022-10-15T13:37:56;23.30;;;14.20;;
72095;SDS011;59968;51.084;16.748;2022-10-15T13:40:27;19.30;;;12.10;;
72095;SDS011;59968;51.084;16.748;2022-10-15T13:43:00;23.10;;;14.70;;
72095;SDS011;59968;51.084;16.748;2022-10-15T13:45:36;24.90;;;14.50;;
72095;SDS011;59968;51.084;16.748;2022-10-15T13:48:11;21.90;;;13.30;;
72095;SDS011;59968;51.084;16.748;2022-10-15T13:50:40;21.40;;;13.40;;
72095;SDS011;59968;51.084;16.748;2022-10-15T13:56:03;22.10;;;12.90;;
72095;SDS011;59968;51.084;16.748;2022-10-15T13:58:46;22.70;;;13.30;;
72095;SDS011;59968;51.084;16.748;2022-10-15T14:01:15;25.40;;;15.10;;
72095;SDS011;59968;51.084;16.748;2022-10-15T14:03:48;24.30;;;14.60;;
72095;SDS011;59968;51.084;16.748;2022-10-15T14:08:52;22.70;;;12.60;;
72095;SDS011;59968;51.084;16.748;2022-10-15T14:11:26;17.90;;;11.10;;
72095;SDS011;59968;51.084;16.748;2022-10-15T14:14:04;19.40;;;11.30;;
72095;SDS011;59968;51.084;16.748;2022-10-15T14:16:57;16.40;;;10.40;;
72095;SDS011;59968;51.084;16.748;2022-10-15T14:19:34;18.80;;;10.60;;
72095;SDS011;59968;51.084;16.748;2022-10-15T14:22:05;15.20;;;9.40;;
72095;SDS011;59968;51.084;16.748;2022-10-15T14:24:34;17.10;;;9.90;;
72095;SDS011;59968;51.084;16.748;2022-10-15T14:27:05;16.80;;;10.40;;
72095;SDS011;59968;51.084;16.748;2022-10-15T14:29:43;19.50;;;10.90;;
72095;SDS011;59968;51.084;16.748;2022-10-15T14:32:17;16.90;;;9.90;;
72095;SDS011;59968;51.084;16.748;2022-10-15T14:34:54;17.40;;;10.30;;
72095;SDS011;59968;51.084;16.748;2022-10-15T14:40:17;20.00;;;11.50;;
72095;SDS011;59968;51.084;16.748;2022-10-15T14:42:48;18.90;;;11.40;;
72095;SDS011;59968;51.084;16.748;2022-10-15T14:45:38;21.90;;;11.70;;
72095;SDS011;59968;51.084;16.748;2022-10-15T14:48:23;23.00;;;13.90;;
72095;SDS011;59968;51.084;16.748;2022-10-15T14:50:58;25.00;;;14.80;;
72095;SDS011;59968;51.084;16.748;2022-10-15T14:53:30;26.60;;;15.40;;
72095;SDS011;59968;51.084;16.748;2022-10-15T14:56:23;25.80;;;16.20;;
72095;SDS011;59968;51.084;16.748;2022-10-15T14:58:57;24.80;;;15.60;;
72095;SDS011;59968;51.084;16.748;2022-10-15T15:01:29;25.70;;;14.30;;
72095;SDS011;59968;51.084;16.748;2022-10-15T15:04:01;25.90;;;15.40;;
72095;SDS011;59968;51.084;16.748;2022-10-15T15:06:30;25.40;;;15.50;;
72095;SDS011;59968;51.084;16.748;2022-10-15T15:08:59;25.50;;;14.90;;
72095;SDS011;59968;51.084;16.748;2022-10-15T15:11:27;23.80;;;15.50;;
72095;SDS011;59968;51.084;16.748;2022-10-15T15:13:55;23.10;;;15.70;;
72095;SDS011;59968;51.084;16.748;2022-10-15T15:16:24;25.10;;;14.40;;
72095;SDS011;59968;51.084;16.748;2022-10-15T15:18:53;24.90;;;15.60;;
72095;SDS011;59968;51.084;16.748;2022-10-15T15:21:23;25.30;;;16.00;;
72095;SDS011;59968;51.084;16.748;2022-10-15T15:23:53;25.70;;;16.20;;
72095;SDS011;59968;51.084;16.748;2022-10-15T15:26:21;26.90;;;16.30;;
72095;SDS011;59968;51.084;16.748;2022-10-15T15:28:51;24.90;;;14.70;;
72095;SDS011;59968;51.084;16.748;2022-10-15T15:31:21;25.40;;;15.80;;
72095;SDS011;59968;51.084;16.748;2022-10-15T15:33:49;26.70;;;16.50;;
72095;SDS011;59968;51.084;16.748;2022-10-15T15:36:18;30.30;;;17.50;;
72095;SDS011;59968;51.084;16.748;2022-10-15T15:38:51;31.10;;;17.70;;
72095;SDS011;59968;51.084;16.748;2022-10-15T15:41:21;28.80;;;17.30;;
72095;SDS011;59968;51.084;16.748;2022-10-15T15:43:56;27.70;;;16.00;;
72095;SDS011;59968;51.084;16.748;2022-10-15T15:46:26;29.20;;;16.40;;
72095;SDS011;59968;51.084;16.748;2022-10-15T15:48:57;28.10;;;16.50;;
72095;SDS011;59968;51.084;16.748;2022-10-15T15:51:27;31.90;;;19.10;;
72095;SDS011;59968;51.084;16.748;2022-10-15T15:53:58;31.50;;;18.30;;
72095;SDS011;59968;51.084;16.748;2022-10-15T15:56:30;31.50;;;18.50;;
72095;SDS011;59968;51.084;16.748;2022-10-15T15:58:59;31.60;;;17.60;;
72095;SDS011;59968;51.084;16.748;2022-10-15T16:01:27;32.00;;;17.00;;
72095;SDS011;59968;51.084;16.748;2022-10-15T16:03:56;31.10;;;18.10;;
72095;SDS011;59968;51.084;16.748;2022-10-15T16:06:24;28.90;;;17.20;;
72095;SDS011;59968;51.084;16.748;2022-10-15T16:08:53;32.50;;;19.00;;
72095;SDS011;59968;51.084;16.748;2022-10-15T16:11:21;31.80;;;18.10;;
72095;SDS011;59968;51.084;16.748;2022-10-15T16:13:50;33.00;;;19.10;;
72095;SDS011;59968;51.084;16.748;2022-10-15T16:16:18;33.80;;;20.40;;
72095;SDS011;59968;51.084;16.748;2022-10-15T16:18:48;34.20;;;20.20;;
72095;SDS011;59968;51.084;16.748;2022-10-15T16:21:22;35.60;;;20.60;;
72095;SDS011;59968;51.084;16.748;2022-10-15T16:23:52;35.20;;;20.00;;
72095;SDS011;59968;51.084;16.748;2022-10-15T16:26:21;32.70;;;18.10;;
72095;SDS011;59968;51.084;16.748;2022-10-15T16:28:51;33.70;;;20.30;;
72095;SDS011;59968;51.084;16.748;2022-10-15T16:31:31;36.60;;;21.40;;
72095;SDS011;59968;51.084;16.748;2022-10-15T16:34:10;36.90;;;20.60;;
72095;SDS011;59968;51.084;16.748;2022-10-15T16:36:40;35.60;;;21.40;;
72095;SDS011;59968;51.084;16.748;2022-10-15T16:39:08;36.70;;;23.10;;
72095;SDS011;59968;51.084;16.748;2022-10-15T16:41:37;34.10;;;20.80;;
72095;SDS011;59968;51.084;16.748;2022-10-15T16:44:06;34.90;;;20.00;;
72095;SDS011;59968;51.084;16.748;2022-10-15T16:46:37;34.80;;;18.80;;
72095;SDS011;59968;51.084;16.748;2022-10-15T16:49:07;30.10;;;18.30;;
72095;SDS011;59968;51.084;16.748;2022-10-15T16:51:37;31.50;;;19.50;;
72095;SDS011;59968;51.084;16.748;2022-10-15T16:54:12;34.20;;;20.40;;